Time,TemperatureF,DewpointF,PressureIn,WindDirection,WindDirectionDegrees,WindSpeedMPH,WindSpeedGustMPH,Humidity,HourlyPrecipIn,Conditions,Clouds,dailyrainin,SolarRadiationWatts/m^2,SoftwareType,DateUTC
2013-06-27 00:01:00,68.0,35.0,-100.00,WSW,245,17.0,39.0,29,0.00,,,0.00,763.000000,,2013-06-27 00:01:00,
2013-06-27 00:11:00,68.0,35.0,-100.00,WSW,245,17.0,39.0,29,0.00,,,0.00,763.000000,,2013-06-27 00:11:00,
2013-06-27 00:22:00,68.0,35.0,-100.00,WSW,245,17.0,39.0,29,0.00,,,0.00,763.000000,,2013-06-27 00:22:00,
2013-06-27 00:33:00,68.0,35.0,-100.00,WSW,245,17.0,39.0,29,0.00,,,0.00,763.000000,,2013-06-27 00:33:00,
2013-06-27 00:40:00,66.0,34.0,-100.00,WSW,258,13.0,32.0,30,0.00,,,0.00,639.000000,,2013-06-27 00:40:00,
2013-06-27 01:11:00,66.0,34.0,-100.00,WSW,258,13.0,32.0,30,0.00,,,0.00,639.000000,,2013-06-27 01:11:00,
2013-06-27 01:21:00,66.0,34.0,-100.00,WSW,258,13.0,32.0,30,0.00,,,0.00,639.000000,,2013-06-27 01:21:00,
2013-06-27 01:32:00,66.0,34.0,-100.00,WSW,258,13.0,32.0,30,0.00,,,0.00,639.000000,,2013-06-27 01:32:00,
2013-06-27 01:40:00,62.0,31.0,-100.00,WSW,239,21.0,37.0,31,0.00,,,0.00,282.000000,,2013-06-27 01:40:00,
2013-06-27 02:11:00,62.0,31.0,-100.00,WSW,239,21.0,37.0,31,0.00,,,0.00,282.000000,,2013-06-27 02:11:00,
2013-06-27 02:22:00,62.0,31.0,-100.00,WSW,239,21.0,37.0,31,0.00,,,0.00,282.000000,,2013-06-27 02:22:00,
2013-06-27 02:32:00,62.0,31.0,-100.00,WSW,239,21.0,37.0,31,0.00,,,0.00,282.000000,,2013-06-27 02:32:00,
2013-06-27 02:40:00,61.0,34.0,-100.00,WSW,246,11.0,35.0,36,0.00,,,0.00,30.000000,,2013-06-27 02:40:00,
2013-06-27 03:11:00,61.0,34.0,-100.00,WSW,246,11.0,35.0,36,0.00,,,0.00,30.000000,,2013-06-27 03:11:00,
2013-06-27 03:21:00,61.0,34.0,-100.00,WSW,246,11.0,35.0,36,0.00,,,0.00,30.000000,,2013-06-27 03:21:00,
2013-06-27 03:32:00,61.0,34.0,-100.00,WSW,246,11.0,35.0,36,0.00,,,0.00,30.000000,,2013-06-27 03:32:00,
2013-06-27 03:40:00,60.0,36.0,-100.00,WSW,247,13.0,27.0,40,0.00,,,0.00,5.000000,,2013-06-27 03:40:00,
2013-06-27 04:11:00,60.0,36.0,-100.00,WSW,247,13.0,27.0,40,0.00,,,0.00,5.000000,,2013-06-27 04:11:00,
2013-06-27 04:22:00,60.0,36.0,-100.00,WSW,247,13.0,27.0,40,0.00,,,0.00,5.000000,,2013-06-27 04:22:00,
2013-06-27 04:32:00,60.0,36.0,-100.00,WSW,247,13.0,27.0,40,0.00,,,0.00,5.000000,,2013-06-27 04:32:00,
2013-06-27 04:40:00,60.0,36.0,-100.00,WSW,242,14.0,36.0,41,0.00,,,0.00,0.000000,,2013-06-27 04:40:00,
2013-06-27 05:12:00,60.0,36.0,-100.00,WSW,242,14.0,36.0,41,0.00,,,0.00,0.000000,,2013-06-27 05:12:00,
2013-06-27 05:22:00,60.0,36.0,-100.00,WSW,242,14.0,36.0,41,0.00,,,0.00,0.000000,,2013-06-27 05:22:00,
2013-06-27 05:32:00,60.0,36.0,-100.00,WSW,242,14.0,36.0,41,0.00,,,0.00,0.000000,,2013-06-27 05:32:00,
2013-06-27 05:40:00,57.0,35.0,-100.00,West,260,6.0,21.0,44,0.00,,,0.00,0.000000,,2013-06-27 05:40:00,
2013-06-27 06:12:00,57.0,35.0,-100.00,West,260,6.0,21.0,44,0.00,,,0.00,0.000000,,2013-06-27 06:12:00,
2013-06-27 06:22:00,57.0,35.0,-100.00,West,260,6.0,21.0,44,0.00,,,0.00,0.000000,,2013-06-27 06:22:00,
2013-06-27 06:34:00,57.0,35.0,-100.00,West,260,6.0,21.0,44,0.00,,,0.00,0.000000,,2013-06-27 06:34:00,
2013-06-27 06:40:00,58.0,36.0,-100.00,WSW,242,12.0,27.0,44,0.00,,,0.00,0.000000,,2013-06-27 06:40:00,
2013-06-27 07:12:00,58.0,36.0,-100.00,WSW,242,12.0,27.0,44,0.00,,,0.00,0.000000,,2013-06-27 07:12:00,
2013-06-27 07:22:00,58.0,36.0,-100.00,WSW,242,12.0,27.0,44,0.00,,,0.00,0.000000,,2013-06-27 07:22:00,
2013-06-27 07:33:00,58.0,36.0,-100.00,WSW,242,12.0,27.0,44,0.00,,,0.00,0.000000,,2013-06-27 07:33:00,
2013-06-27 07:40:00,57.0,36.0,-100.00,WSW,245,9.0,32.0,45,0.00,,,0.00,0.000000,,2013-06-27 07:40:00,
2013-06-27 08:11:00,57.0,36.0,-100.00,WSW,245,9.0,32.0,45,0.00,,,0.00,0.000000,,2013-06-27 08:11:00,
2013-06-27 08:22:00,57.0,36.0,-100.00,WSW,245,9.0,32.0,45,0.00,,,0.00,0.000000,,2013-06-27 08:22:00,
2013-06-27 08:34:00,57.0,36.0,-100.00,WSW,245,9.0,32.0,45,0.00,,,0.00,0.000000,,2013-06-27 08:34:00,
2013-06-27 08:40:00,58.0,38.0,-100.00,SW,234,7.0,21.0,47,0.00,,,0.00,0.000000,,2013-06-27 08:40:00,
2013-06-27 09:11:00,58.0,38.0,-100.00,SW,234,7.0,21.0,47,0.00,,,0.00,0.000000,,2013-06-27 09:11:00,
2013-06-27 09:22:00,58.0,38.0,-100.00,SW,234,7.0,21.0,47,0.00,,,0.00,0.000000,,2013-06-27 09:22:00,
2013-06-27 09:34:00,58.0,38.0,-100.00,SW,234,7.0,21.0,47,0.00,,,0.00,0.000000,,2013-06-27 09:34:00,
2013-06-27 09:40:00,57.0,38.0,-100.00,SW,222,7.0,17.0,49,0.00,,,0.00,0.000000,,2013-06-27 09:40:00,
2013-06-27 10:11:00,57.0,38.0,-100.00,SW,222,7.0,17.0,49,0.00,,,0.00,0.000000,,2013-06-27 10:11:00,
2013-06-27 10:22:00,57.0,38.0,-100.00,SW,222,7.0,17.0,49,0.00,,,0.00,0.000000,,2013-06-27 10:22:00,
2013-06-27 10:32:00,57.0,38.0,-100.00,SW,222,7.0,17.0,49,0.00,,,0.00,0.000000,,2013-06-27 10:32:00,
2013-06-27 10:40:00,55.0,39.0,-100.00,SW,228,7.0,16.0,54,0.00,,,0.00,0.000000,,2013-06-27 10:40:00,
2013-06-27 11:01:00,55.0,39.0,-100.00,SW,228,7.0,16.0,54,0.00,,,0.00,0.000000,,2013-06-27 11:01:00,
2013-06-27 11:11:00,55.0,39.0,-100.00,SW,228,7.0,16.0,54,0.00,,,0.00,0.000000,,2013-06-27 11:11:00,
2013-06-27 11:22:00,55.0,39.0,-100.00,SW,228,7.0,16.0,54,0.00,,,0.00,0.000000,,2013-06-27 11:22:00,
2013-06-27 11:33:00,55.0,39.0,-100.00,SW,228,7.0,16.0,54,0.00,,,0.00,0.000000,,2013-06-27 11:33:00,
2013-06-27 11:40:00,56.0,39.0,-100.00,SSW,210,9.0,15.0,52,0.00,,,0.00,1.000000,,2013-06-27 11:40:00,
2013-06-27 12:11:00,56.0,39.0,-100.00,SSW,210,9.0,15.0,52,0.00,,,0.00,1.000000,,2013-06-27 12:11:00,
2013-06-27 12:22:00,56.0,39.0,-100.00,SSW,210,9.0,15.0,52,0.00,,,0.00,1.000000,,2013-06-27 12:22:00,
2013-06-27 12:34:00,56.0,39.0,-100.00,SSW,210,9.0,15.0,52,0.00,,,0.00,1.000000,,2013-06-27 12:34:00,
2013-06-27 12:40:00,58.0,39.0,-100.00,SW,216,8.0,17.0,50,0.00,,,0.00,48.000000,,2013-06-27 12:40:00,
2013-06-27 13:11:00,58.0,39.0,-100.00,SW,216,8.0,17.0,50,0.00,,,0.00,48.000000,,2013-06-27 13:11:00,
2013-06-27 13:22:00,58.0,39.0,-100.00,SW,216,8.0,17.0,50,0.00,,,0.00,48.000000,,2013-06-27 13:22:00,
2013-06-27 13:34:00,58.0,39.0,-100.00,SW,216,8.0,17.0,50,0.00,,,0.00,48.000000,,2013-06-27 13:34:00,
2013-06-27 13:40:00,62.0,39.0,-100.00,SSW,213,9.0,15.0,43,0.00,,,0.00,315.000000,,2013-06-27 13:40:00,
2013-06-27 14:11:00,62.0,39.0,-100.00,SSW,213,9.0,15.0,43,0.00,,,0.00,315.000000,,2013-06-27 14:11:00,
2013-06-27 14:22:00,62.0,39.0,-100.00,SSW,213,9.0,15.0,43,0.00,,,0.00,315.000000,,2013-06-27 14:22:00,
2013-06-27 14:33:00,62.0,39.0,-100.00,SSW,213,9.0,15.0,43,0.00,,,0.00,315.000000,,2013-06-27 14:33:00,
2013-06-27 14:40:00,63.0,38.0,-100.00,SW,217,8.0,18.0,40,0.00,,,0.00,562.000000,,2013-06-27 14:40:00,
2013-06-27 15:12:00,63.0,38.0,-100.00,SW,217,8.0,18.0,40,0.00,,,0.00,562.000000,,2013-06-27 15:12:00,
2013-06-27 15:22:00,63.0,38.0,-100.00,SW,217,8.0,18.0,40,0.00,,,0.00,562.000000,,2013-06-27 15:22:00,
2013-06-27 15:33:00,63.0,38.0,-100.00,SW,217,8.0,18.0,40,0.00,,,0.00,562.000000,,2013-06-27 15:33:00,
2013-06-27 15:40:00,66.0,38.0,-100.00,SW,218,13.0,23.0,35,0.00,,,0.00,791.000000,,2013-06-27 15:40:00,
2013-06-27 16:11:00,66.0,38.0,-100.00,SW,218,13.0,23.0,35,0.00,,,0.00,791.000000,,2013-06-27 16:11:00,
2013-06-27 16:23:00,66.0,38.0,-100.00,SW,218,13.0,23.0,35,0.00,,,0.00,791.000000,,2013-06-27 16:23:00,
2013-06-27 16:34:00,66.0,38.0,-100.00,SW,218,13.0,23.0,35,0.00,,,0.00,791.000000,,2013-06-27 16:34:00,
2013-06-27 16:40:00,72.0,37.0,-100.00,WSW,243,7.0,22.0,28,0.00,,,0.00,999.000000,,2013-06-27 16:40:00,
2013-06-27 17:11:00,72.0,37.0,-100.00,WSW,243,7.0,22.0,28,0.00,,,0.00,999.000000,,2013-06-27 17:11:00,
2013-06-27 17:22:00,72.0,37.0,-100.00,WSW,243,7.0,22.0,28,0.00,,,0.00,999.000000,,2013-06-27 17:22:00,
2013-06-27 17:33:00,72.0,37.0,-100.00,WSW,243,7.0,22.0,28,0.00,,,0.00,999.000000,,2013-06-27 17:33:00,
2013-06-27 17:40:00,74.0,35.0,-100.00,NE,43,7.0,16.0,24,0.00,,,0.00,1165.000000,,2013-06-27 17:40:00,
2013-06-27 18:11:00,74.0,35.0,-100.00,NE,43,7.0,16.0,24,0.00,,,0.00,1165.000000,,2013-06-27 18:11:00,
2013-06-27 18:22:00,74.0,35.0,-100.00,NE,43,7.0,16.0,24,0.00,,,0.00,1165.000000,,2013-06-27 18:22:00,
2013-06-27 18:32:00,74.0,35.0,-100.00,NE,43,7.0,16.0,24,0.00,,,0.00,1165.000000,,2013-06-27 18:32:00,
2013-06-27 19:40:00,76.0,28.0,-100.00,SSW,196,7.0,18.0,17,0.00,,,-99.99,1322.000000,,2013-06-27 19:40:00,
2013-06-27 20:11:00,76.0,28.0,-100.00,SSW,196,7.0,18.0,17,0.00,,,-99.99,1322.000000,,2013-06-27 20:11:00,
2013-06-27 20:22:00,76.0,28.0,-100.00,SSW,196,7.0,18.0,17,0.00,,,-99.99,1322.000000,,2013-06-27 20:22:00,
2013-06-27 20:36:00,76.0,28.0,-100.00,SSW,196,7.0,18.0,17,0.00,,,-99.99,1322.000000,,2013-06-27 20:36:00,
2013-06-27 20:40:00,79.0,26.0,-100.00,NW,318,6.0,16.0,14,0.00,,,0.00,1258.000000,,2013-06-27 20:40:00,
2013-06-27 21:13:00,79.0,26.0,-100.00,NW,318,6.0,16.0,14,0.00,,,0.00,1258.000000,,2013-06-27 21:13:00,
2013-06-27 21:24:00,79.0,26.0,-100.00,NW,318,6.0,16.0,14,0.00,,,0.00,1258.000000,,2013-06-27 21:24:00,
2013-06-27 21:35:00,79.0,26.0,-100.00,NW,318,6.0,16.0,14,0.00,,,0.00,1258.000000,,2013-06-27 21:35:00,
2013-06-27 22:14:00,79.0,42.0,-100.00,West,277,3.0,14.0,27,0.00,,,0.00,1063.000000,,2013-06-27 22:14:00,
2013-06-27 22:23:00,79.0,42.0,-100.00,West,277,3.0,14.0,27,0.00,,,0.00,1063.000000,,2013-06-27 22:23:00,
2013-06-27 22:40:00,77.0,43.0,-100.00,NE,41,3.0,11.0,30,0.00,,,0.00,920.000000,,2013-06-27 22:40:00,
2013-06-27 23:15:00,77.0,43.0,-100.00,NE,41,3.0,11.0,30,0.00,,,0.00,920.000000,,2013-06-27 23:15:00,
2013-06-27 23:25:00,77.0,43.0,-100.00,NE,41,3.0,11.0,30,0.00,,,0.00,920.000000,,2013-06-27 23:25:00,
2013-06-27 23:34:00,77.0,43.0,-100.00,NE,41,3.0,11.0,30,0.00,,,0.00,920.000000,,2013-06-27 23:34:00,
2013-06-27 23:40:00,77.0,45.0,-100.00,North,5,3.0,10.0,32,0.00,,,0.00,771.000000,,2013-06-27 23:40:00,